Time;durP1;ratioP1;P1;durP2;ratioP2;P2;SDS_P1;SDS_P2;PMS_P1;PMS_P2;Temp;Humidity;BMP_temperature;BMP_pressure;BME280_temperature;BME280_humidity;BME280_pressure;Samples;Min_cycle;Max_cycle;Signal;HPM_P1;HPM_P2
2022/04/07 00:01:19;;;;;;;2.63;1.75;;;17.60;50.30;;;;;;5013537;28;20076;-76
2022/04/07 00:03:45;;;;;;;2.35;1.50;;;17.60;50.30;;;;;;5013446;28;20022;-75
2022/04/07 00:06:12;;;;;;;3.55;1.70;;;17.60;50.30;;;;;;5015153;28;20052;-77
2022/04/07 00:08:38;;;;;;;2.95;1.65;;;17.60;50.30;;;;;;5029927;28;20022;-76
2022/04/07 00:11:04;;;;;;;2.67;1.60;;;17.50;50.30;;;;;;4997221;28;20032;-76
2022/04/07 00:13:30;;;;;;;2.50;1.95;;;17.60;50.40;;;;;;5013903;28;20014;-78
2022/04/07 00:15:56;;;;;;;1.88;1.63;;;17.50;50.40;;;;;;5013364;28;20396;-76
2022/04/07 00:18:22;;;;;;;2.00;1.60;;;17.50;50.40;;;;;;4996777;28;20062;-77
2022/04/07 00:20:48;;;;;;;2.53;1.40;;;17.50;50.40;;;;;;5013571;28;20018;-76
2022/04/07 00:23:14;;;;;;;2.47;1.80;;;17.50;50.30;;;;;;5015760;28;20366;-77
2022/04/07 00:25:39;;;;;;;2.53;1.50;;;17.60;50.30;;;;;;5017034;28;20022;-77
2022/04/07 00:28:05;;;;;;;2.50;1.60;;;17.50;50.30;;;;;;5015699;28;20014;-76
2022/04/07 00:30:31;;;;;;;1.90;1.55;;;17.50;50.30;;;;;;4998729;28;20018;-78
2022/04/07 00:32:57;;;;;;;1.90;1.50;;;17.50;50.30;;;;;;5015324;28;20477;-77
2022/04/07 00:35:26;;;;;;;3.45;1.90;;;17.50;50.30;;;;;;5014941;28;20029;-76
2022/04/07 00:37:52;;;;;;;3.30;1.50;;;17.50;50.30;;;;;;5012966;28;20010;-79
2022/04/07 00:40:18;;;;;;;2.08;1.48;;;17.50;50.20;;;;;;5012922;28;20492;-77
2022/04/07 00:42:46;;;;;;;2.90;1.70;;;17.50;50.30;;;;;;5013104;28;20465;-77
2022/04/07 00:45:11;;;;;;;2.67;1.60;;;17.50;50.30;;;;;;5012931;28;20099;-78
2022/04/07 00:47:37;;;;;;;1.98;1.50;;;17.50;50.30;;;;;;5013783;28;20049;-78
2022/04/07 00:50:04;;;;;;;2.13;1.60;;;17.50;50.30;;;;;;5012963;28;20021;-77
2022/04/07 00:52:30;;;;;;;2.67;1.50;;;17.50;50.20;;;;;;5012271;28;20037;-77
2022/04/07 00:54:56;;;;;;;2.90;1.50;;;17.50;50.20;;;;;;5012557;28;20041;-78
2022/04/07 00:57:22;;;;;;;2.40;1.40;;;17.50;50.20;;;;;;5012093;28;20022;-77
2022/04/07 00:59:48;;;;;;;2.20;1.48;;;17.50;50.20;;;;;;5012661;28;20129;-77
2022/04/07 01:02:14;;;;;;;2.47;1.52;;;17.50;50.20;;;;;;4995804;28;20108;-77
2022/04/07 01:04:41;;;;;;;2.08;1.48;;;17.50;50.10;;;;;;5012516;28;20020;-77
2022/04/07 01:07:07;;;;;;;2.85;1.52;;;17.50;50.20;;;;;;5012433;28;20080;-76
2022/04/07 01:09:33;;;;;;;2.58;1.70;;;17.50;50.20;;;;;;5012131;28;20018;-77
2022/04/07 01:12:03;;;;;;;2.55;1.88;;;17.50;50.10;;;;;;5012292;28;20053;-76
2022/04/07 01:14:30;;;;;;;3.75;1.50;;;17.50;50.20;;;;;;5011816;28;20481;-78
2022/04/07 01:16:56;;;;;;;1.77;1.38;;;17.50;50.10;;;;;;5013213;28;20025;-77
2022/04/07 01:19:22;;;;;;;3.97;1.52;;;17.50;50.20;;;;;;5011532;28;20038;-76
2022/04/07 01:21:48;;;;;;;2.58;1.70;;;17.40;50.10;;;;;;5012595;28;20485;-77
2022/04/07 01:24:14;;;;;;;3.15;1.40;;;17.50;50.10;;;;;;5013007;28;20493;-76
2022/04/07 01:26:44;;;;;;;5.18;1.77;;;17.50;50.10;;;;;;5012801;28;20058;-78
2022/04/07 01:29:11;;;;;;;2.92;1.60;;;17.40;50.10;;;;;;5013486;28;20021;-77
2022/04/07 01:31:38;;;;;;;2.42;1.50;;;17.40;50.10;;;;;;5013035;28;20022;-76
2022/04/07 01:34:07;;;;;;;3.25;1.38;;;17.40;50.10;;;;;;5012760;28;20018;-77
2022/04/07 01:36:38;;;;;;;3.72;1.60;;;17.40;50.60;;;;;;4995649;28;20048;-76
2022/04/07 01:39:04;;;;;;;2.72;1.48;;;17.40;50.10;;;;;;5013047;28;20121;-76
2022/04/07 01:41:29;;;;;;;2.20;1.55;;;17.40;50.00;;;;;;5012179;28;20083;-77
2022/04/07 01:43:56;;;;;;;2.95;1.55;;;17.40;50.00;;;;;;4996514;28;20465;-76
2022/04/07 01:46:22;;;;;;;3.30;1.60;;;17.40;49.90;;;;;;5015192;28;20065;-77
2022/04/07 01:48:49;;;;;;;2.80;1.45;;;17.40;50.00;;;;;;5015334;28;20069;-76
2022/04/07 01:51:14;;;;;;;2.33;1.30;;;17.40;50.00;;;;;;5016517;28;20426;-77
2022/04/07 01:53:41;;;;;;;2.75;1.48;;;17.40;50.00;;;;;;5016829;28;20077;-76
2022/04/07 01:56:07;;;;;;;2.58;1.50;;;17.40;50.10;;;;;;5015857;28;20022;-77
2022/04/07 01:58:34;;;;;;;3.05;1.50;;;17.40;50.10;;;;;;5016111;28;20010;-76
2022/04/07 02:01:00;;;;;;;2.95;1.60;;;17.40;50.10;;;;;;5015831;28;20511;-76
2022/04/07 02:03:27;;;;;;;2.75;1.60;;;17.40;50.00;;;;;;5015616;28;20022;-76
2022/04/07 02:05:53;;;;;;;2.35;1.60;;;17.40;50.00;;;;;;5017478;28;20032;-76
2022/04/07 02:08:20;;;;;;;2.35;1.35;;;17.40;50.00;;;;;;5016544;28;20084;-76
2022/04/07 02:10:47;;;;;;;4.10;1.70;;;17.50;50.00;;;;;;5017092;28;20523;-76
2022/04/07 02:13:13;;;;;;;3.90;1.48;;;17.40;50.00;;;;;;5017150;28;20045;-76
2022/04/07 02:15:39;;;;;;;3.08;1.55;;;17.40;49.90;;;;;;5017254;28;20520;-76
2022/04/07 02:18:06;;;;;;;3.67;1.50;;;17.40;49.90;;;;;;5015237;28;20026;-77
2022/04/07 02:20:31;;;;;;;2.20;1.50;;;17.40;50.00;;;;;;5015787;28;20022;-76
2022/04/07 02:22:59;;;;;;;4.18;1.85;;;17.40;50.00;;;;;;5016841;28;20541;-76
2022/04/07 02:25:27;;;;;;;2.58;1.27;;;17.40;49.90;;;;;;5017454;28;20091;-77
2022/04/07 02:27:54;;;;;;;2.35;1.35;;;17.40;49.90;;;;;;4999957;28;20029;-77
2022/04/07 02:30:19;;;;;;;3.42;1.55;;;17.40;49.90;;;;;;5015807;28;20029;-77
2022/04/07 02:32:48;;;;;;;1.80;1.20;;;17.40;49.90;;;;;;5016202;28;20030;-77
2022/04/07 02:35:13;;;;;;;4.00;1.63;;;17.40;49.90;;;;;;5015805;28;20531;-75
2022/04/07 02:37:40;;;;;;;3.42;1.60;;;17.40;49.90;;;;;;5014023;28;20420;-76
2022/04/07 02:40:06;;;;;;;3.72;1.60;;;17.30;50.40;;;;;;5014037;28;20022;-76
2022/04/07 02:42:32;;;;;;;2.67;1.58;;;17.40;50.00;;;;;;5013910;28;20018;-75
2022/04/07 02:44:58;;;;;;;3.00;1.38;;;17.30;49.90;;;;;;5014534;28;20014;-75
2022/04/07 02:47:35;;;;;;;3.88;1.52;;;17.40;49.90;;;;;;5014312;28;20022;-77
2022/04/07 02:50:00;;;;;;;2.65;1.45;;;17.30;49.80;;;;;;4998687;28;20018;-76
2022/04/07 02:52:26;;;;;;;2.78;1.55;;;17.30;49.90;;;;;;5016234;28;20547;-76
2022/04/07 02:54:52;;;;;;;2.00;1.30;;;17.40;49.90;;;;;;5032387;28;20366;-76
2022/04/07 02:57:24;;;;;;;3.80;1.50;;;17.30;49.90;;;;;;4999603;28;20528;-76
2022/04/07 02:59:52;;;;;;;3.33;1.42;;;17.30;49.80;;;;;;4999428;28;20021;-76
2022/04/07 03:02:18;;;;;;;2.72;1.30;;;17.40;49.90;;;;;;5016214;28;20029;-77
2022/04/07 03:04:45;;;;;;;4.38;1.40;;;17.30;49.80;;;;;;5015496;28;20033;-79
2022/04/07 03:07:11;;;;;;;2.70;1.50;;;17.30;49.80;;;;;;5016264;28;20120;-79
2022/04/07 03:09:40;;;;;;;3.72;1.58;;;17.30;49.80;;;;;;5018338;28;20017;-79
2022/04/07 03:12:06;;;;;;;3.22;1.40;;;17.30;49.90;;;;;;5034249;28;20026;-78
2022/04/07 03:14:33;;;;;;;2.10;1.25;;;17.30;49.90;;;;;;5017796;28;20014;-78
2022/04/07 03:16:59;;;;;;;3.58;1.40;;;17.30;49.80;;;;;;5018914;28;20010;-78
2022/04/07 03:19:25;;;;;;;3.20;1.30;;;17.30;49.70;;;;;;5000607;28;20038;-79
2022/04/07 03:21:51;;;;;;;3.75;1.30;;;17.30;49.80;;;;;;5013662;28;20473;-77
2022/04/07 03:24:17;;;;;;;2.20;1.30;;;17.30;49.80;;;;;;5013116;28;20543;-77
2022/04/07 03:26:44;;;;;;;3.03;1.30;;;17.30;49.70;;;;;;5013531;28;20014;-77
2022/04/07 03:29:09;;;;;;;2.20;1.30;;;17.30;49.70;;;;;;5013282;28;20469;-77
2022/04/07 03:31:35;;;;;;;3.35;1.40;;;17.30;49.70;;;;;;5013297;28;20069;-77
2022/04/07 03:34:01;;;;;;;3.25;1.55;;;17.30;49.80;;;;;;5013375;28;20148;-77
2022/04/07 03:36:27;;;;;;;2.00;1.10;;;17.30;49.80;;;;;;5014121;28;20528;-79
2022/04/07 03:38:53;;;;;;;3.28;1.42;;;17.30;49.80;;;;;;5014323;28;20089;-80
2022/04/07 03:41:18;;;;;;;2.45;1.27;;;17.30;49.70;;;;;;4998123;28;20037;-80
2022/04/07 03:43:45;;;;;;;3.97;1.50;;;17.30;49.70;;;;;;4998319;28;20397;-77
2022/04/07 03:46:11;;;;;;;4.80;1.27;;;17.30;49.70;;;;;;4997328;28;20049;-77
2022/04/07 03:48:36;;;;;;;3.45;1.38;;;17.30;49.50;;;;;;5013964;28;20018;-77
2022/04/07 03:51:03;;;;;;;3.92;1.50;;;17.40;49.40;;;;;;5014606;28;20117;-78
2022/04/07 03:53:29;;;;;;;3.47;1.45;;;17.50;49.20;;;;;;4998349;28;20089;-78
2022/04/07 03:55:55;;;;;;;2.80;1.33;;;17.60;48.90;;;;;;5015174;28;20006;-78
2022/04/07 03:58:21;;;;;;;2.65;1.20;;;17.70;48.60;;;;;;5016385;28;20010;-79
2022/04/07 04:00:48;;;;;;;2.33;1.40;;;17.90;48.30;;;;;;5015515;28;20013;-79
2022/04/07 04:03:14;;;;;;;3.05;1.33;;;18.00;47.90;;;;;;5017258;28;20018;-79
2022/04/07 04:05:40;;;;;;;2.88;1.20;;;18.10;47.40;;;;;;5000395;28;20010;-78
2022/04/07 04:08:08;;;;;;;1.63;1.10;;;18.30;47.10;;;;;;5018373;28;20037;-78
2022/04/07 04:10:34;;;;;;;3.55;1.40;;;18.30;46.80;;;;;;5018460;28;20013;-79
2022/04/07 04:13:00;;;;;;;2.80;1.35;;;18.50;46.70;;;;;;5034226;28;20030;-79
2022/04/07 04:15:25;;;;;;;2.53;1.30;;;18.60;46.20;;;;;;5001115;28;20022;-78
2022/04/07 04:17:52;;;;;;;2.90;1.30;;;18.70;45.90;;;;;;5017458;28;20053;-78
2022/04/07 04:20:18;;;;;;;3.65;1.40;;;18.80;45.50;;;;;;5017220;28;20493;-77
2022/04/07 04:22:44;;;;;;;2.75;1.20;;;19.00;45.30;;;;;;5013156;28;20017;-77
2022/04/07 04:25:10;;;;;;;3.17;1.35;;;19.10;45.00;;;;;;5013113;28;20022;-79
2022/04/07 04:27:36;;;;;;;2.10;1.10;;;19.20;44.80;;;;;;5013931;28;20010;-78
2022/04/07 04:30:02;;;;;;;2.35;1.10;;;19.30;44.50;;;;;;5015002;28;20037;-78
2022/04/07 04:32:29;;;;;;;1.83;1.17;;;19.30;44.30;;;;;;5013507;28;20026;-78
2022/04/07 04:34:55;;;;;;;1.92;1.10;;;19.50;44.10;;;;;;5013405;28;20053;-77
2022/04/07 04:37:25;;;;;;;1.95;1.30;;;19.50;43.90;;;;;;4997121;28;20026;-79
2022/04/07 04:39:53;;;;;;;2.30;1.10;;;19.60;43.70;;;;;;5013548;28;20019;-79
2022/04/07 04:42:18;;;;;;;3.05;1.00;;;19.80;43.50;;;;;;5013248;28;20022;-78
2022/04/07 04:44:46;;;;;;;2.55;1.00;;;19.90;43.20;;;;;;5013026;28;20018;-79
2022/04/07 04:47:12;;;;;;;2.22;1.00;;;20.00;43.00;;;;;;5014110;28;20052;-80
2022/04/07 04:49:41;;;;;;;1.80;1.08;;;20.00;42.70;;;;;;5013052;28;20504;-81
2022/04/07 04:52:10;;;;;;;1.58;1.00;;;20.10;42.60;;;;;;5014777;28;20093;-82
2022/04/07 04:54:35;;;;;;;4.43;1.30;;;20.20;42.50;;;;;;5014791;28;20053;-80
2022/04/07 04:57:02;;;;;;;1.63;0.90;;;20.20;42.30;;;;;;5015608;28;20033;-80
2022/04/07 04:59:28;;;;;;;2.50;1.30;;;20.30;42.20;;;;;;5015253;28;20362;-79
2022/04/07 05:01:54;;;;;;;2.90;1.30;;;20.30;42.00;;;;;;5014536;28;20029;-81
2022/04/07 05:04:20;;;;;;;2.20;1.20;;;20.40;41.90;;;;;;5014915;28;20094;-81
2022/04/07 05:06:46;;;;;;;1.77;1.00;;;20.40;41.70;;;;;;4999310;28;20029;-82
2022/04/07 05:09:13;;;;;;;1.75;0.82;;;20.50;41.80;;;;;;5015834;28;20109;-81
2022/04/07 05:11:39;;;;;;;2.83;1.20;;;20.50;41.70;;;;;;5016825;28;20060;-82
2022/04/07 05:14:04;;;;;;;2.25;1.02;;;20.50;41.70;;;;;;5016106;28;20022;-82
2022/04/07 05:16:30;;;;;;;1.65;0.90;;;20.50;41.60;;;;;;5015820;28;20026;-82
2022/04/07 05:18:56;;;;;;;3.25;1.08;;;20.50;41.50;;;;;;5018566;28;20041;-82
2022/04/07 05:21:22;;;;;;;2.08;1.00;;;20.60;41.40;;;;;;5018076;28;20029;-81
2022/04/07 05:23:49;;;;;;;2.70;0.90;;;20.60;41.30;;;;;;5017914;28;20018;-81
2022/04/07 05:26:15;;;;;;;2.75;1.00;;;20.70;41.30;;;;;;5017408;28;20487;-81
2022/04/07 05:28:41;;;;;;;2.05;1.10;;;20.70;41.30;;;;;;5017322;28;20026;-81
2022/04/07 05:31:07;;;;;;;2.65;1.00;;;20.70;41.30;;;;;;5000940;28;20022;-80
2022/04/07 05:33:33;;;;;;;1.80;0.90;;;20.70;41.30;;;;;;5000710;28;20018;-80
2022/04/07 05:35:59;;;;;;;2.25;1.00;;;20.70;41.10;;;;;;5016682;28;20007;-81
2022/04/07 05:38:25;;;;;;;2.17;1.02;;;20.80;41.10;;;;;;4999564;28;20030;-81
2022/04/07 05:40:51;;;;;;;2.85;1.20;;;20.80;41.10;;;;;;5015917;28;20101;-82
2022/04/07 05:43:17;;;;;;;1.60;0.80;;;20.80;41.10;;;;;;5015932;28;20484;-80
2022/04/07 05:45:45;;;;;;;1.90;1.00;;;20.80;41.10;;;;;;5015833;28;20513;-80
2022/04/07 05:48:14;;;;;;;2.22;0.80;;;20.80;40.90;;;;;;5016220;28;20028;-80
2022/04/07 05:50:40;;;;;;;3.22;0.85;;;20.90;40.90;;;;;;5017038;28;20014;-78
2022/04/07 05:53:06;;;;;;;1.48;0.70;;;20.90;40.80;;;;;;5017874;28;20478;-78
2022/04/07 05:55:35;;;;;;;3.00;1.10;;;20.90;40.70;;;;;;5000400;28;20020;-79
2022/04/07 05:58:07;;;;;;;2.08;0.85;;;20.90;40.70;;;;;;5017190;28;20022;-79
2022/04/07 06:00:34;;;;;;;2.58;1.05;;;20.90;40.80;;;;;;5017421;28;20025;-79
2022/04/07 06:03:04;;;;;;;2.38;0.88;;;20.90;40.70;;;;;;5018414;28;20096;-79
2022/04/07 06:05:30;;;;;;;2.20;1.00;;;21.00;40.70;;;;;;5019161;28;20014;-79
2022/04/07 06:07:59;;;;;;;2.85;1.00;;;21.00;40.70;;;;;;5020604;28;20477;-80
2022/04/07 06:10:26;;;;;;;;;;;21.00;40.70;;;;;;5022022;28;20018;-80
2022/04/07 06:12:52;;;;;;;2.85;0.88;;;20.90;40.70;;;;;;5020221;28;19917;-80
2022/04/07 06:15:18;;;;;;;2.78;0.88;;;21.00;40.80;;;;;;5019972;28;20076;-79
2022/04/07 06:17:44;;;;;;;2.67;1.00;;;21.00;40.80;;;;;;5020038;28;20061;-79
2022/04/07 06:20:11;;;;;;;1.85;0.90;;;21.00;40.70;;;;;;5019770;28;20041;-78
2022/04/07 06:22:37;;;;;;;2.17;1.00;;;21.00;40.60;;;;;;5015931;28;20489;-79
2022/04/07 06:25:03;;;;;;;2.08;1.00;;;21.10;40.60;;;;;;4999763;28;20022;-78
2022/04/07 06:27:38;;;;;;;2.42;0.90;;;21.10;40.50;;;;;;5015550;28;20022;-78
2022/04/07 06:30:06;;;;;;;2.92;0.90;;;21.10;40.50;;;;;;5016103;28;20022;-77
2022/04/07 06:32:31;;;;;;;2.45;1.00;;;21.10;40.50;;;;;;5016176;28;20064;-78
2022/04/07 06:34:57;;;;;;;1.98;0.73;;;21.10;40.50;;;;;;5015692;28;20377;-78
2022/04/07 06:37:23;;;;;;;2.28;0.82;;;21.10;40.60;;;;;;5015697;28;20473;-78
2022/04/07 06:39:49;;;;;;;2.13;0.88;;;21.20;40.60;;;;;;5014338;28;20006;-79
2022/04/07 06:42:16;;;;;;;2.22;0.90;;;21.20;40.50;;;;;;5014322;28;20038;-78
2022/04/07 06:44:43;;;;;;;1.95;0.85;;;21.20;40.50;;;;;;5015948;28;20080;-80
2022/04/07 06:47:09;;;;;;;1.90;0.93;;;21.20;40.70;;;;;;4997958;28;20141;-82
2022/04/07 06:49:36;;;;;;;1.42;0.82;;;21.20;40.80;;;;;;5014613;28;20018;-81
2022/04/07 06:52:02;;;;;;;2.08;0.80;;;21.20;40.80;;;;;;5015785;28;20022;-81
2022/04/07 06:54:29;;;;;;;4.15;1.00;;;21.20;40.70;;;;;;5016284;28;20045;-82
2022/04/07 06:56:55;;;;;;;1.95;0.70;;;21.20;40.70;;;;;;5017521;28;20103;-81
2022/04/07 06:59:21;;;;;;;2.63;1.02;;;21.20;40.60;;;;;;5033400;28;20477;-82
2022/04/07 07:01:47;;;;;;;2.13;0.70;;;21.30;40.70;;;;;;5018013;28;20021;-81
2022/04/07 07:04:13;;;;;;;2.30;0.85;;;21.30;40.70;;;;;;5001094;28;20495;-80
2022/04/07 07:06:39;;;;;;;1.33;0.70;;;21.30;40.60;;;;;;5016494;28;20028;-80
2022/04/07 07:09:05;;;;;;;2.80;0.95;;;21.30;40.60;;;;;;5015965;28;20063;-80
2022/04/07 07:11:31;;;;;;;1.60;0.70;;;21.30;40.60;;;;;;5015076;28;20030;-79
2022/04/07 07:13:57;;;;;;;1.77;0.70;;;21.30;40.60;;;;;;5016382;28;20021;-80
2022/04/07 07:16:23;;;;;;;2.13;0.80;;;21.30;40.70;;;;;;4999698;28;20025;-80
2022/04/07 07:18:51;;;;;;;1.33;0.60;;;21.30;40.80;;;;;;4999995;28;20089;-80
2022/04/07 07:21:17;;;;;;;3.10;0.60;;;21.30;40.80;;;;;;5014907;28;20018;-79
2022/04/07 07:23:43;;;;;;;2.13;0.80;;;21.30;40.80;;;;;;5014358;28;20029;-79
2022/04/07 07:26:09;;;;;;;1.85;0.80;;;21.30;40.90;;;;;;5015555;28;20026;-80
2022/04/07 07:28:35;;;;;;;2.50;0.60;;;21.40;40.90;;;;;;5015826;28;20092;-79
2022/04/07 07:31:01;;;;;;;1.60;0.70;;;21.40;40.90;;;;;;5015705;28;20042;-79
2022/04/07 07:33:27;;;;;;;2.95;0.80;;;21.40;40.80;;;;;;5015413;28;20056;-80
2022/04/07 07:35:52;;;;;;;2.33;0.80;;;21.40;40.80;;;;;;5031366;28;20421;-79
2022/04/07 07:38:19;;;;;;;2.25;0.77;;;21.50;40.90;;;;;;5014038;28;20457;-79
2022/04/07 07:40:44;;;;;;;1.50;0.70;;;21.50;40.90;;;;;;4997692;28;20026;-79
2022/04/07 07:43:10;;;;;;;3.33;0.80;;;21.40;40.80;;;;;;5014166;28;20021;-80
2022/04/07 07:45:36;;;;;;;3.70;0.90;;;21.50;40.80;;;;;;5014277;28;20497;-80
2022/04/07 07:48:02;;;;;;;2.05;0.77;;;21.50;40.70;;;;;;5015821;28;20033;-79
2022/04/07 07:50:28;;;;;;;2.05;0.80;;;21.50;40.70;;;;;;5014375;28;20104;-80
2022/04/07 07:52:54;;;;;;;3.33;0.75;;;21.50;40.70;;;;;;5015193;28;20030;-79
2022/04/07 07:55:21;;;;;;;2.92;0.90;;;21.50;40.70;;;;;;5015138;28;20029;-78
2022/04/07 07:57:47;;;;;;;2.05;0.90;;;21.50;40.90;;;;;;5014795;28;20018;-80
2022/04/07 08:00:17;;;;;;;2.25;0.80;;;21.50;40.90;;;;;;5015079;28;20047;-79
2022/04/07 08:02:43;;;;;;;3.80;0.82;;;21.50;40.80;;;;;;5014373;28;20136;-79
2022/04/07 08:05:09;;;;;;;2.50;0.80;;;21.60;40.80;;;;;;5015183;28;20014;-79
2022/04/07 08:07:42;;;;;;;1.63;0.50;;;21.50;40.70;;;;;;5014071;28;20485;-78
2022/04/07 08:10:08;;;;;;;2.63;0.70;;;21.60;40.70;;;;;;4997483;28;20500;-79
2022/04/07 08:12:35;;;;;;;3.28;1.00;;;21.60;40.60;;;;;;5013814;28;20030;-80
2022/04/07 08:15:01;;;;;;;2.90;0.75;;;21.70;40.60;;;;;;5013986;28;20021;-79
2022/04/07 08:17:27;;;;;;;2.47;0.90;;;21.60;40.50;;;;;;5014024;28;20408;-80
2022/04/07 08:19:52;;;;;;;1.80;0.68;;;21.70;40.70;;;;;;5013258;28;20432;-77
2022/04/07 08:22:19;;;;;;;2.42;0.73;;;21.70;40.60;;;;;;5013302;28;20024;-79
2022/04/07 08:24:44;;;;;;;1.92;0.70;;;21.70;40.60;;;;;;5013509;28;20022;-79
2022/04/07 08:27:12;;;;;;;4.63;0.93;;;21.70;40.60;;;;;;5013883;28;20010;-80
2022/04/07 08:29:38;;;;;;;2.58;0.60;;;21.80;40.60;;;;;;5013888;28;20041;-79
2022/04/07 08:32:05;;;;;;;2.38;0.70;;;21.80;40.50;;;;;;5014234;28;20044;-78
2022/04/07 08:34:31;;;;;;;1.50;0.70;;;21.80;40.50;;;;;;5014138;28;20022;-79
2022/04/07 08:36:57;;;;;;;1.77;0.60;;;21.90;40.40;;;;;;4997621;28;20022;-77
2022/04/07 08:39:23;;;;;;;2.38;0.80;;;21.90;40.40;;;;;;5031822;28;20485;-79
2022/04/07 08:41:49;;;;;;;2.33;1.00;;;21.90;40.30;;;;;;5014387;28;20028;-80
2022/04/07 08:44:16;;;;;;;3.97;1.08;;;22.00;40.20;;;;;;5013798;28;20026;-79
2022/04/07 08:46:42;;;;;;;3.35;0.70;;;22.10;40.10;;;;;;5013665;28;20018;-79
2022/04/07 08:49:08;;;;;;;3.00;0.60;;;22.10;40.10;;;;;;5014185;28;20041;-81
2022/04/07 08:51:37;;;;;;;2.63;0.73;;;22.10;40.00;;;;;;5014903;28;20026;-79
2022/04/07 08:54:03;;;;;;;2.90;0.70;;;22.10;40.00;;;;;;5018652;28;20034;-79
2022/04/07 08:56:28;;;;;;;4.00;1.00;;;22.10;39.80;;;;;;5002592;28;20369;-79
2022/04/07 08:58:54;;;;;;;4.15;1.20;;;22.20;39.80;;;;;;5019437;28;20117;-79
2022/04/07 09:01:20;;;;;;;4.47;1.10;;;22.20;39.80;;;;;;5018817;28;20883;-79
2022/04/07 09:03:46;;;;;;;3.20;0.80;;;22.30;39.70;;;;;;5002591;28;20022;-80
2022/04/07 09:06:14;;;;;;;5.22;0.60;;;22.40;39.60;;;;;;5019680;28;20064;-80
2022/04/07 09:08:40;;;;;;;3.63;1.00;;;22.40;39.50;;;;;;5017931;28;20045;-81
2022/04/07 09:11:08;;;;;;;3.53;0.95;;;22.50;39.40;;;;;;5018328;28;20461;-80
2022/04/07 09:13:35;;;;;;;4.13;0.80;;;22.50;39.30;;;;;;5001742;28;20026;-80
2022/04/07 09:16:14;;;;;;;7.50;0.75;;;22.50;39.20;;;;;;5002019;28;20053;-80
2022/04/07 09:18:41;;;;;;;3.53;0.70;;;22.50;39.00;;;;;;5018513;28;20076;-80
2022/04/07 09:21:08;;;;;;;4.60;0.88;;;22.60;38.90;;;;;;5017679;28;20006;-79
2022/04/07 09:23:40;;;;;;;3.90;0.77;;;22.90;38.70;;;;;;5017465;28;20532;-80
2022/04/07 09:26:11;;;;;;;4.35;0.90;;;23.10;38.20;;;;;;5017113;28;20022;-81
2022/04/07 09:28:37;;;;;;;3.47;0.95;;;23.30;37.80;;;;;;5018724;28;20018;-80
2022/04/07 09:31:04;;;;;;;4.78;0.80;;;23.40;37.30;;;;;;5017509;28;20018;-80
2022/04/07 09:33:30;;;;;;;2.78;0.70;;;23.60;37.10;;;;;;5001394;28;20026;-80
2022/04/07 09:35:59;;;;;;;4.60;1.08;;;23.80;36.70;;;;;;5018315;28;20140;-80
2022/04/07 09:38:26;;;;;;;5.18;0.70;;;23.90;36.40;;;;;;5018106;28;20025;-80
2022/04/07 09:40:52;;;;;;;3.22;0.73;;;24.00;36.10;;;;;;5018172;28;20021;-80
2022/04/07 09:43:18;;;;;;;4.72;1.13;;;24.10;36.00;;;;;;5018032;28;20018;-80
2022/04/07 09:45:47;;;;;;;6.53;1.23;;;24.10;35.90;;;;;;5018048;28;21268;-79
2022/04/07 09:48:30;;;;;;;5.43;0.90;;;24.20;35.70;;;;;;5017589;28;20125;-79
2022/04/07 09:51:03;;;;;;;5.90;0.82;;;24.20;35.60;;;;;;5017478;28;20052;-78
2022/04/07 09:53:39;;;;;;;8.32;1.02;;;24.20;35.50;;;;;;5017515;28;20025;-79
2022/04/07 09:56:06;;;;;;;4.97;0.90;;;24.10;35.30;;;;;;5017064;28;20014;-78
2022/04/07 09:58:33;;;;;;;5.07;0.82;;;24.10;35.40;;;;;;5016942;28;20011;-80
2022/04/07 10:01:02;;;;;;;5.82;0.85;;;24.10;35.20;;;;;;5016371;28;20018;-79
2022/04/07 10:03:29;;;;;;;4.25;0.77;;;24.20;35.20;;;;;;5000486;28;20021;-81
2022/04/07 10:05:55;;;;;;;4.93;0.85;;;24.20;35.10;;;;;;5016301;28;20089;-80
2022/04/07 10:08:22;;;;;;;4.57;0.80;;;24.10;35.10;;;;;;5016955;28;20026;-79
2022/04/07 10:10:48;;;;;;;5.85;0.93;;;24.10;35.10;;;;;;5017435;28;20089;-79
2022/04/07 10:13:14;;;;;;;7.80;1.20;;;24.00;34.90;;;;;;5016939;28;20049;-80
2022/04/07 10:15:40;;;;;;;3.85;0.80;;;24.00;35.10;;;;;;5017326;28;20018;-79
2022/04/07 10:18:11;;;;;;;4.97;1.35;;;23.90;34.80;;;;;;5018034;28;20508;-79
2022/04/07 10:20:41;;;;;;;6.47;0.95;;;23.90;34.90;;;;;;5017435;28;20064;-79
2022/04/07 10:23:27;;;;;;;6.15;1.10;;;23.90;34.70;;;;;;5015422;28;20010;-78
2022/04/07 10:25:53;;;;;;;4.57;0.80;;;23.80;34.60;;;;;;5015435;28;20030;-78
2022/04/07 10:28:22;;;;;;;7.03;1.10;;;23.80;34.70;;;;;;5014943;28;20385;-77
2022/04/07 10:30:52;;;;;;;4.35;1.13;;;23.80;34.60;;;;;;5015108;28;20014;-77
2022/04/07 10:33:55;;;;;;;4.13;0.60;;;23.70;34.40;;;;;;4998455;28;20022;-79
2022/04/07 10:36:34;;;;;;;5.07;0.90;;;23.70;34.40;;;;;;5008338;28;20030;-78
2022/04/07 10:39:01;;;;;;;6.88;1.00;;;23.70;34.40;;;;;;5014289;28;20014;-77
2022/04/07 10:41:36;;;;;;;5.03;0.90;;;23.50;34.30;;;;;;4997828;28;20033;-77
2022/04/07 10:44:13;;;;;;;5.68;1.23;;;23.60;34.40;;;;;;5015610;28;20101;-78
2022/04/07 10:46:39;;;;;;;5.75;1.20;;;23.50;34.40;;;;;;4998025;28;20080;-76
2022/04/07 10:49:09;;;;;;;4.53;0.80;;;23.50;34.20;;;;;;5014620;28;20022;-76
2022/04/07 10:51:45;;;;;;;;;;;23.50;34.30;;;;;;5019034;28;20021;-76
2022/04/07 10:54:12;;;;;;;5.57;0.85;;;23.40;34.10;;;;;;5021100;28;19908;-78
2022/04/07 10:56:41;;;;;;;3.30;0.80;;;23.50;34.10;;;;;;5003335;28;20076;-80
2022/04/07 10:59:27;;;;;;;3.03;1.20;;;23.40;33.90;;;;;;5018728;28;20014;-80
2022/04/07 11:02:00;;;;;;;6.25;0.93;;;23.50;33.90;;;;;;5018487;28;20026;-78
2022/04/07 11:04:26;;;;;;;5.72;1.05;;;23.40;33.90;;;;;;5017590;28;20049;-77
2022/04/07 11:07:22;;;;;;;3.65;0.90;;;23.30;33.80;;;;;;5015939;28;20022;-75
2022/04/07 11:10:00;;;;;;;4.13;0.65;;;23.30;33.80;;;;;;5015637;28;20018;-76
2022/04/07 11:12:37;;;;;;;3.63;1.00;;;23.20;33.70;;;;;;5015481;28;20026;-76
2022/04/07 11:15:03;;;;;;;4.00;0.80;;;23.10;33.60;;;;;;5013753;28;20026;-76
2022/04/07 11:17:32;;;;;;;4.13;0.90;;;23.10;33.60;;;;;;5013750;28;20018;-78
2022/04/07 11:20:06;;;;;;;5.63;0.93;;;23.00;33.50;;;;;;5015479;28;20022;-76
2022/04/07 11:23:07;;;;;;;3.72;0.80;;;23.00;33.60;;;;;;5016697;28;20098;-75
2022/04/07 11:25:37;;;;;;;3.53;0.85;;;23.00;33.50;;;;;;5016684;28;20081;-77
2022/04/07 11:28:04;;;;;;;4.82;0.98;;;23.00;33.60;;;;;;5015753;28;20036;-78
2022/04/07 11:30:37;;;;;;;3.70;0.82;;;22.90;33.60;;;;;;4998851;28;20024;-79
2022/04/07 11:33:25;;;;;;;3.63;0.85;;;23.00;33.60;;;;;;4998614;28;20102;-77
2022/04/07 11:36:01;;;;;;;4.18;1.10;;;22.90;33.50;;;;;;5017743;28;20013;-78
2022/04/07 11:38:37;;;;;;;5.07;0.77;;;22.90;33.60;;;;;;5019598;28;20025;-77
2022/04/07 11:41:10;;;;;;;4.35;1.13;;;22.80;33.50;;;;;;5018782;28;20057;-78
2022/04/07 11:43:41;;;;;;;5.40;1.17;;;22.80;33.60;;;;;;5017867;28;20017;-77
2022/04/07 11:46:07;;;;;;;4.50;0.95;;;22.70;33.60;;;;;;5001208;28;20013;-78
2022/04/07 11:48:38;;;;;;;5.57;1.52;;;22.60;33.50;;;;;;5018207;28;20026;-78
2022/04/07 11:51:14;;;;;;;4.25;0.90;;;22.60;33.50;;;;;;5016598;28;20052;-77
2022/04/07 11:53:40;;;;;;;7.32;1.08;;;22.60;33.50;;;;;;5016126;28;20069;-78
2022/04/07 11:56:25;;;;;;;4.63;1.30;;;22.60;33.50;;;;;;5015571;28;20021;-77
2022/04/07 11:59:05;;;;;;;3.50;0.90;;;22.50;33.50;;;;;;5000246;28;20014;-77
2022/04/07 12:01:30;;;;;;;5.90;1.15;;;22.50;33.40;;;;;;5015260;28;20435;-77
2022/04/07 12:04:01;;;;;;;5.72;1.00;;;22.60;33.40;;;;;;5014645;28;20018;-77
2022/04/07 12:06:28;;;;;;;3.33;0.95;;;22.60;33.40;;;;;;5013401;28;20018;-77
2022/04/07 12:08:55;;;;;;;4.07;0.80;;;22.50;33.50;;;;;;5013348;28;20060;-77
2022/04/07 12:11:21;;;;;;;4.72;1.27;;;22.50;33.50;;;;;;5012797;28;20018;-76
2022/04/07 12:13:51;;;;;;;4.82;1.10;;;22.50;33.40;;;;;;5013195;28;20041;-79
2022/04/07 12:16:17;;;;;;;;;;;22.50;33.50;;;;;;5013718;28;20017;-77
2022/04/07 12:18:53;;;;;;;5.45;1.10;;;22.40;33.60;;;;;;5013843;28;19909;-78
2022/04/07 12:21:19;;;;;;;7.70;1.10;;;22.40;33.60;;;;;;5012392;28;20018;-77
2022/04/07 12:23:46;;;;;;;7.93;1.20;;;22.40;33.60;;;;;;5012168;28;20021;-79
2022/04/07 12:26:12;;;;;;;5.68;1.35;;;22.40;33.60;;;;;;5012188;28;20042;-80
2022/04/07 12:28:38;;;;;;;4.13;0.98;;;22.40;33.60;;;;;;5011661;28;20088;-78
2022/04/07 12:31:20;;;;;;;7.43;1.40;;;22.40;33.50;;;;;;5012015;28;20109;-79
2022/04/07 12:33:54;;;;;;;7.13;1.33;;;22.40;33.50;;;;;;5012472;28;20030;-79
2022/04/07 12:36:32;;;;;;;5.30;1.15;;;22.30;33.50;;;;;;4995857;28;20461;-79
2022/04/07 12:39:16;;;;;;;6.32;1.20;;;22.40;33.50;;;;;;5013316;28;20018;-82
2022/04/07 12:41:51;;;;;;;6.25;1.25;;;22.40;33.40;;;;;;5009191;28;20484;-79
2022/04/07 12:44:36;;;;;;;4.85;1.08;;;22.30;33.40;;;;;;5012440;28;20097;-83
2022/04/07 12:47:14;;;;;;;4.38;1.15;;;22.30;33.50;;;;;;5012471;28;20040;-82
2022/04/07 12:49:40;;;;;;;4.88;1.20;;;22.30;33.40;;;;;;5012989;28;20021;-81
2022/04/07 12:52:13;;;;;;;5.47;1.33;;;22.20;33.30;;;;;;5016908;28;20068;-82